Time;durP1;ratioP1;P1;durP2;ratioP2;P2;SDS_P1;SDS_P2;PMS_P1;PMS_P2;Temp;Humidity;BMP_temperature;BMP_pressure;BME280_temperature;BME280_humidity;BME280_pressure;Samples;Min_cycle;Max_cycle;Signal;HPM_P1;HPM_P2
2022/11/25 00:01:39;;;;;;;2.03;1.55;;;21.50;91.40;;;;;;6186777;28;89034;-67
2022/11/25 00:04:42;;;;;;;2.40;1.70;;;21.50;91.40;;;;;;6205879;28;88284;-67
2022/11/25 00:07:44;;;;;;;2.50;1.60;;;21.40;91.40;;;;;;6206432;28;89317;-67
2022/11/25 00:10:46;;;;;;;1.60;1.40;;;21.50;91.40;;;;;;6205289;28;88100;-67
2022/11/25 00:13:49;;;;;;;3.13;1.95;;;21.50;91.40;;;;;;6182864;28;88145;-68
2022/11/25 00:16:51;;;;;;;1.75;1.48;;;21.50;91.30;;;;;;6182165;28;89129;-67
2022/11/25 00:19:54;;;;;;;1.88;1.63;;;21.40;91.30;;;;;;6203526;28;89112;-67
2022/11/25 00:22:56;;;;;;;1.67;1.35;;;21.40;91.30;;;;;;6206022;28;88552;-67
2022/11/25 00:25:58;;;;;;;1.65;1.55;;;21.40;91.30;;;;;;6205937;28;89375;-67
2022/11/25 00:29:01;;;;;;;1.40;1.30;;;21.40;91.30;;;;;;6201659;28;89229;-67
2022/11/25 00:32:04;;;;;;;1.50;1.40;;;21.40;91.40;;;;;;6202701;28;90151;-67
2022/11/25 00:35:08;;;;;;;2.45;1.67;;;21.40;91.30;;;;;;6196357;28;89213;-67
2022/11/25 00:38:10;;;;;;;2.35;1.80;;;21.40;91.40;;;;;;6213749;28;89044;-66
2022/11/25 00:44:38;;;;;;;2.05;1.58;;;21.30;91.30;;;;;;6179314;28;87653;-67
2022/11/25 00:47:40;;;;;;;1.70;1.40;;;21.40;91.40;;;;;;6194462;28;89002;-67
2022/11/25 00:50:44;;;;;;;2.40;1.60;;;21.30;91.30;;;;;;6191290;28;88997;-67
2022/11/25 00:53:46;;;;;;;1.88;1.40;;;21.30;91.30;;;;;;6206621;28;88334;-67
2022/11/25 00:56:48;;;;;;;1.98;1.40;;;21.30;91.30;;;;;;6212538;28;88052;-67
2022/11/25 00:59:50;;;;;;;1.73;1.40;;;21.30;91.30;;;;;;6202446;28;88418;-67
2022/11/25 01:02:52;;;;;;;1.80;1.50;;;21.30;91.30;;;;;;6199661;28;90309;-67
2022/11/25 01:06:00;;;;;;;1.83;1.50;;;21.30;91.30;;;;;;6198142;28;89860;-67
2022/11/25 01:09:03;;;;;;;2.33;1.45;;;21.30;91.30;;;;;;6213264;28;90764;-67
2022/11/25 01:12:06;;;;;;;1.48;1.33;;;21.30;91.30;;;;;;6181942;28;89072;-67
2022/11/25 01:15:09;;;;;;;1.55;1.40;;;21.30;91.30;;;;;;6192663;28;89148;-67
2022/11/25 01:18:11;;;;;;;1.65;1.40;;;21.30;91.30;;;;;;6205640;28;89147;-67
2022/11/25 01:21:17;;;;;;;1.55;1.30;;;21.30;91.30;;;;;;6211083;28;88036;-67
2022/11/25 01:24:19;;;;;;;1.63;1.30;;;21.20;91.30;;;;;;6201025;28;88336;-67
2022/11/25 01:27:21;;;;;;;1.30;1.20;;;21.30;91.30;;;;;;6205324;28;89679;-67
2022/11/25 01:30:23;;;;;;;1.83;1.48;;;21.20;91.30;;;;;;6199534;28;89108;-66
2022/11/25 01:33:25;;;;;;;2.15;1.50;;;21.30;91.30;;;;;;6207284;28;90216;-67
2022/11/25 01:36:29;;;;;;;1.83;1.40;;;21.20;91.30;;;;;;6193975;28;89060;-67
2022/11/25 01:39:31;;;;;;;1.55;1.45;;;21.20;91.30;;;;;;6187666;28;89502;-66
2022/11/25 01:42:33;;;;;;;1.55;1.40;;;21.20;91.30;;;;;;6206684;28;88046;-67
2022/11/25 01:45:37;;;;;;;1.63;1.38;;;21.20;91.30;;;;;;6207582;28;89984;-67
2022/11/25 01:48:42;;;;;;;1.38;1.27;;;21.20;91.30;;;;;;6190916;28;89316;-67
2022/11/25 01:51:51;;;;;;;1.55;1.25;;;21.20;91.20;;;;;;6197789;28;87997;-67
2022/11/25 01:54:57;;;;;;;1.48;1.33;;;21.20;91.20;;;;;;6187429;28;88403;-67
2022/11/25 01:58:05;;;;;;;2.38;1.58;;;21.20;91.20;;;;;;6207467;28;89280;-67
2022/11/25 02:01:07;;;;;;;2.45;1.60;;;21.20;91.20;;;;;;6198999;28;89147;-67
2022/11/25 02:04:12;;;;;;;1.30;1.20;;;21.10;91.20;;;;;;6186787;28;90095;-67
2022/11/25 02:07:24;;;;;;;1.98;1.38;;;21.10;91.60;;;;;;6189529;28;88002;-66
2022/11/25 02:10:29;;;;;;;1.70;1.42;;;21.10;91.20;;;;;;6187535;28;89074;-67
2022/11/25 02:13:33;;;;;;;1.73;1.33;;;21.20;91.30;;;;;;6186143;28;89239;-67
2022/11/25 02:16:35;;;;;;;1.50;1.40;;;21.10;91.30;;;;;;6190082;28;89251;-67
2022/11/25 02:19:51;;;;;;;1.65;1.27;;;21.10;91.20;;;;;;6196088;28;89347;-67
2022/11/25 02:23:00;;;;;;;1.38;1.27;;;21.10;91.20;;;;;;6187787;28;89091;-67
2022/11/25 02:26:05;;;;;;;1.75;1.27;;;21.10;91.20;;;;;;6191417;28;87372;-67
2022/11/25 02:29:07;;;;;;;1.85;1.45;;;21.10;91.20;;;;;;6204359;28;89018;-67
2022/11/25 02:32:09;;;;;;;1.83;1.50;;;21.10;91.20;;;;;;6207248;28;88281;-67
2022/11/25 02:35:26;;;;;;;1.98;1.30;;;21.10;91.20;;;;;;6206441;28;90102;-67
2022/11/25 02:38:38;;;;;;;1.55;1.27;;;21.10;91.20;;;;;;6188390;28;89003;-67
2022/11/25 02:41:45;;;;;;;1.38;1.27;;;21.10;91.20;;;;;;6187774;28;89148;-68
2022/11/25 02:44:48;;;;;;;2.33;1.42;;;21.10;91.20;;;;;;6206272;28;89225;-67
2022/11/25 02:47:50;;;;;;;2.28;1.55;;;21.00;91.20;;;;;;6207980;28;88972;-67
2022/11/25 02:50:52;;;;;;;2.10;1.58;;;21.00;91.20;;;;;;6203845;28;89049;-67
2022/11/25 02:53:55;;;;;;;2.15;1.48;;;21.00;91.20;;;;;;6201421;28;89029;-67
2022/11/25 02:56:58;;;;;;;2.92;1.70;;;21.00;91.20;;;;;;6200520;28;88325;-67
2022/11/25 03:00:00;;;;;;;2.05;1.48;;;21.00;91.20;;;;;;6217104;28;89263;-67
2022/11/25 03:03:02;;;;;;;1.83;1.35;;;21.00;91.20;;;;;;6196461;28;89271;-67
2022/11/25 03:06:04;;;;;;;1.67;1.40;;;21.00;91.20;;;;;;6183207;28;90135;-67
2022/11/25 03:09:06;;;;;;;2.08;1.30;;;21.00;91.20;;;;;;6190724;28;89335;-67
2022/11/25 03:12:19;;;;;;;2.38;1.60;;;21.00;91.10;;;;;;6194390;28;89150;-68
2022/11/25 03:15:21;;;;;;;2.72;1.50;;;21.00;91.10;;;;;;6207104;28;89864;-67
2022/11/25 03:18:23;;;;;;;1.30;1.15;;;21.00;91.10;;;;;;6193969;28;89141;-67
2022/11/25 03:21:25;;;;;;;2.45;1.58;;;21.00;91.10;;;;;;6189801;28;89125;-67
2022/11/25 03:24:28;;;;;;;1.77;1.30;;;21.00;91.10;;;;;;6194435;28;88039;-67
2022/11/25 03:27:31;;;;;;;2.03;1.52;;;21.00;91.10;;;;;;6206699;28;88614;-67
2022/11/25 03:30:33;;;;;;;2.05;1.33;;;21.00;91.10;;;;;;6206712;28;87963;-67
2022/11/25 03:33:35;;;;;;;1.77;1.42;;;20.90;91.10;;;;;;6206840;28;88035;-67
2022/11/25 03:36:38;;;;;;;1.48;1.17;;;20.90;91.10;;;;;;6206803;28;90175;-66
2022/11/25 03:39:40;;;;;;;1.58;1.30;;;20.90;91.50;;;;;;6195451;28;89250;-67
2022/11/25 03:42:45;;;;;;;1.48;1.17;;;20.90;91.10;;;;;;6217178;28;89308;-68
2022/11/25 03:45:49;;;;;;;1.55;1.20;;;20.90;91.10;;;;;;6192853;28;90448;-67
2022/11/25 03:48:51;;;;;;;1.50;1.25;;;21.00;91.10;;;;;;6193934;28;87999;-67
2022/11/25 03:51:53;;;;;;;3.60;1.80;;;21.00;91.10;;;;;;6214145;28;87842;-67
2022/11/25 03:54:55;;;;;;;1.60;1.30;;;20.90;91.00;;;;;;6183223;28;89324;-67
2022/11/25 03:57:58;;;;;;;2.00;1.40;;;20.90;91.00;;;;;;6194149;28;88680;-68
2022/11/25 04:01:01;;;;;;;1.55;1.25;;;20.90;91.00;;;;;;6206011;28;89609;-67
2022/11/25 04:04:03;;;;;;;1.42;1.20;;;20.90;91.00;;;;;;6206075;28;89164;-67
2022/11/25 04:07:05;;;;;;;1.30;1.10;;;20.90;91.40;;;;;;6205199;28;90096;-67
2022/11/25 04:10:08;;;;;;;1.65;1.25;;;20.90;91.10;;;;;;6199328;28;89211;-67
2022/11/25 04:13:12;;;;;;;1.30;1.20;;;20.90;91.00;;;;;;6184660;28;89213;-67
2022/11/25 04:16:21;;;;;;;1.30;1.20;;;20.90;91.10;;;;;;6196952;28;89104;-67
2022/11/25 04:19:24;;;;;;;2.45;1.50;;;20.80;91.00;;;;;;6195004;28;89300;-67
2022/11/25 04:22:26;;;;;;;1.50;1.27;;;20.80;91.00;;;;;;6195761;28;89065;-67
2022/11/25 04:25:28;;;;;;;1.75;1.30;;;20.80;91.00;;;;;;6207306;28;91139;-67
2022/11/25 04:28:31;;;;;;;1.38;1.27;;;20.80;91.00;;;;;;6206659;28;88520;-67
2022/11/25 04:31:33;;;;;;;2.05;1.30;;;20.80;91.00;;;;;;6191969;28;89306;-67
2022/11/25 04:34:36;;;;;;;1.50;1.20;;;20.90;91.00;;;;;;6205460;28;89933;-66
2022/11/25 04:37:38;;;;;;;1.67;1.30;;;20.80;90.90;;;;;;6209678;28;90127;-66
2022/11/25 04:40:40;;;;;;;1.30;1.20;;;20.90;90.90;;;;;;6212966;28;89190;-66
2022/11/25 04:43:43;;;;;;;1.50;1.20;;;20.90;90.90;;;;;;6205785;28;88239;-67
2022/11/25 04:46:45;;;;;;;2.20;1.50;;;20.90;90.90;;;;;;6205165;28;89321;-67
2022/11/25 04:49:47;;;;;;;2.10;1.35;;;20.90;90.90;;;;;;6205485;28;89344;-67
2022/11/25 04:52:49;;;;;;;2.15;1.25;;;20.90;90.80;;;;;;6207237;28;89311;-66
2022/11/25 04:55:51;;;;;;;1.90;1.30;;;20.90;90.80;;;;;;6193770;28;89240;-67
2022/11/25 05:02:16;;;;;;;1.30;1.20;;;21.00;90.80;;;;;;6210560;28;87597;-66
2022/11/25 05:05:18;;;;;;;1.73;1.27;;;21.00;90.70;;;;;;6210084;28;89756;-67
2022/11/25 05:08:20;;;;;;;1.50;1.40;;;21.00;90.70;;;;;;6205434;28;90269;-66
2022/11/25 05:11:22;;;;;;;1.75;1.30;;;21.00;90.70;;;;;;6193694;28;89209;-66
2022/11/25 05:14:25;;;;;;;1.63;1.27;;;21.00;90.60;;;;;;6182982;28;89178;-66
2022/11/25 05:17:29;;;;;;;1.55;1.45;;;21.10;90.60;;;;;;6204489;28;89067;-67
2022/11/25 05:20:32;;;;;;;1.40;1.20;;;21.10;90.50;;;;;;6209242;28;89147;-67
2022/11/25 05:23:34;;;;;;;1.30;1.20;;;21.10;90.50;;;;;;6200354;28;89321;-67
2022/11/25 05:26:36;;;;;;;1.60;1.30;;;21.10;90.50;;;;;;6198519;28;89149;-67
2022/11/25 05:29:40;;;;;;;2.65;1.60;;;21.10;90.40;;;;;;6192352;28;88394;-67
2022/11/25 05:32:43;;;;;;;1.73;1.38;;;21.20;90.50;;;;;;6195657;28;90178;-67
2022/11/25 05:35:45;;;;;;;1.60;1.20;;;21.20;90.40;;;;;;6209882;28;87774;-67
2022/11/25 05:38:47;;;;;;;1.45;1.30;;;21.20;90.40;;;;;;6197865;28;90206;-67
2022/11/25 05:41:49;;;;;;;1.77;1.38;;;21.20;90.40;;;;;;6204847;28;89514;-67
2022/11/25 05:44:52;;;;;;;1.52;1.40;;;21.20;90.30;;;;;;6209025;28;89413;-67
2022/11/25 05:47:55;;;;;;;1.55;1.30;;;21.20;90.30;;;;;;6207713;28;89198;-66
2022/11/25 05:50:59;;;;;;;1.48;1.23;;;21.20;90.30;;;;;;6209015;28;88985;-67
2022/11/25 05:54:02;;;;;;;1.60;1.30;;;21.30;90.30;;;;;;6208783;28;89210;-67
2022/11/25 05:57:04;;;;;;;1.40;1.30;;;21.20;90.30;;;;;;6208942;28;89238;-67
2022/11/25 06:00:09;;;;;;;2.08;1.65;;;21.30;90.30;;;;;;6207922;28;88412;-67
2022/11/25 06:03:11;;;;;;;2.33;1.65;;;21.30;90.30;;;;;;6208266;28;89207;-66
2022/11/25 06:06:13;;;;;;;1.98;1.73;;;21.30;90.20;;;;;;6208664;28;89204;-67
2022/11/25 06:09:15;;;;;;;1.45;1.33;;;21.30;90.20;;;;;;6208163;28;90064;-67
2022/11/25 06:12:17;;;;;;;2.17;1.50;;;21.30;90.20;;;;;;6193672;28;89220;-67
2022/11/25 06:15:20;;;;;;;2.10;1.58;;;21.30;90.10;;;;;;6195853;28;89302;-66
2022/11/25 06:18:22;;;;;;;1.48;1.35;;;21.30;90.10;;;;;;6188343;28;89373;-66
2022/11/25 06:21:24;;;;;;;1.50;1.30;;;21.30;90.10;;;;;;6190345;28;89184;-66
2022/11/25 06:24:26;;;;;;;1.50;1.40;;;21.30;90.10;;;;;;6207928;28;89199;-66
2022/11/25 06:27:28;;;;;;;2.60;1.67;;;21.40;90.10;;;;;;6208175;28;89205;-66
2022/11/25 06:30:32;;;;;;;2.58;1.80;;;21.30;90.10;;;;;;6208237;28;88514;-66
2022/11/25 06:33:34;;;;;;;1.90;1.50;;;21.30;90.00;;;;;;6208415;28;89312;-67
2022/11/25 06:36:36;;;;;;;1.50;1.30;;;21.30;90.00;;;;;;6184180;28;89274;-67
2022/11/25 06:39:38;;;;;;;1.70;1.38;;;21.40;90.00;;;;;;6191546;28;90379;-67
2022/11/25 06:42:42;;;;;;;1.58;1.40;;;21.40;90.00;;;;;;6187496;28;89326;-66
2022/11/25 06:45:45;;;;;;;1.55;1.45;;;21.40;90.00;;;;;;6202468;28;89238;-67
2022/11/25 06:48:47;;;;;;;1.77;1.58;;;21.40;90.00;;;;;;6207578;28;89224;-67
2022/11/25 06:51:49;;;;;;;2.60;1.70;;;21.40;89.90;;;;;;6193013;28;89196;-67
2022/11/25 06:54:52;;;;;;;3.22;2.05;;;21.40;89.90;;;;;;6181824;28;89170;-66
2022/11/25 06:57:54;;;;;;;1.63;1.52;;;21.40;89.80;;;;;;6196746;28;88913;-67
2022/11/25 07:01:02;;;;;;;2.38;2.13;;;21.50;89.90;;;;;;6196204;28;89174;-67
2022/11/25 07:04:05;;;;;;;2.78;2.22;;;21.50;89.90;;;;;;6207435;28;89117;-67
2022/11/25 07:07:08;;;;;;;2.35;2.15;;;21.40;89.80;;;;;;6199943;28;89137;-67
2022/11/25 07:10:10;;;;;;;2.28;2.00;;;21.50;89.80;;;;;;6200332;28;90201;-67
2022/11/25 07:13:12;;;;;;;2.13;1.92;;;21.50;89.70;;;;;;6195067;28;88385;-67
2022/11/25 07:16:16;;;;;;;2.40;1.92;;;21.50;89.70;;;;;;6190401;28;89120;-66
2022/11/25 07:19:19;;;;;;;3.35;2.22;;;21.50;89.60;;;;;;6196922;28;89108;-66
2022/11/25 07:22:21;;;;;;;3.05;2.10;;;21.50;89.60;;;;;;6207147;28;88012;-67
2022/11/25 07:25:23;;;;;;;2.45;2.00;;;21.50;89.60;;;;;;6195688;28;89473;-67
2022/11/25 07:28:25;;;;;;;2.13;1.92;;;21.50;89.50;;;;;;6205617;28;89225;-66
2022/11/25 07:31:31;;;;;;;2.20;2.00;;;21.50;89.40;;;;;;6195180;28;87229;-67
2022/11/25 07:34:33;;;;;;;2.40;2.20;;;21.50;89.40;;;;;;6206837;28;89108;-66
2022/11/25 07:37:35;;;;;;;2.40;2.10;;;21.50;89.40;;;;;;6205536;28;89282;-67
2022/11/25 07:40:37;;;;;;;2.35;2.15;;;21.50;89.30;;;;;;6192576;28;90219;-66
2022/11/25 07:43:39;;;;;;;2.30;2.10;;;21.50;89.30;;;;;;6192794;28;89131;-66
2022/11/25 07:46:46;;;;;;;2.80;2.50;;;21.50;89.30;;;;;;6207346;28;89184;-66
2022/11/25 07:49:48;;;;;;;3.00;2.38;;;21.60;89.30;;;;;;6206124;28;89126;-67
2022/11/25 07:52:50;;;;;;;2.60;2.20;;;21.60;89.30;;;;;;6207049;28;89301;-66
2022/11/25 07:55:52;;;;;;;2.65;2.40;;;21.60;89.30;;;;;;6206239;28;89164;-66
2022/11/25 07:58:54;;;;;;;2.40;2.20;;;21.60;89.30;;;;;;6193208;28;89472;-67
2022/11/25 08:01:58;;;;;;;2.47;2.28;;;21.60;89.10;;;;;;6202758;28;88375;-66
2022/11/25 08:05:00;;;;;;;2.63;2.42;;;21.60;89.20;;;;;;6194912;28;89574;-67
2022/11/25 08:08:02;;;;;;;3.38;2.78;;;21.60;89.10;;;;;;6183310;28;89093;-66
2022/11/25 08:11:07;;;;;;;2.95;2.63;;;21.60;89.10;;;;;;6192375;28;90177;-67
2022/11/25 08:14:09;;;;;;;3.03;2.70;;;21.60;89.10;;;;;;6200658;28;92150;-66
2022/11/25 08:17:12;;;;;;;3.10;2.80;;;21.60;89.10;;;;;;6195559;28;89159;-66
2022/11/25 08:20:14;;;;;;;3.15;2.78;;;21.60;89.10;;;;;;6190389;28;89226;-66
2022/11/25 08:23:16;;;;;;;2.92;2.60;;;21.60;89.00;;;;;;6185416;28;89158;-67
2022/11/25 08:26:20;;;;;;;3.08;2.78;;;21.60;88.90;;;;;;6201193;28;89247;-67
2022/11/25 08:29:22;;;;;;;3.15;2.85;;;21.60;88.90;;;;;;6206804;28;89072;-66
2022/11/25 08:32:26;;;;;;;3.40;3.10;;;21.60;89.00;;;;;;6205636;28;88654;-67
2022/11/25 08:35:28;;;;;;;3.38;3.08;;;21.60;89.10;;;;;;6204885;28;89228;-67
2022/11/25 08:38:30;;;;;;;4.43;3.35;;;21.60;89.10;;;;;;6205413;28;89336;-66
2022/11/25 08:41:35;;;;;;;3.40;3.10;;;21.60;89.10;;;;;;6193091;28;89876;-67
2022/11/25 08:44:37;;;;;;;3.90;3.10;;;21.60;89.20;;;;;;6205518;28;89344;-67
2022/11/25 08:47:40;;;;;;;3.83;3.00;;;21.60;89.30;;;;;;6205570;28;88046;-67
2022/11/25 08:50:46;;;;;;;3.10;2.80;;;21.60;89.30;;;;;;6188493;28;88036;-67
2022/11/25 08:53:50;;;;;;;3.30;2.97;;;21.50;89.30;;;;;;6184449;28;88433;-66
2022/11/25 08:56:52;;;;;;;3.22;2.92;;;21.60;89.40;;;;;;6189880;28;90044;-67
2022/11/25 08:59:54;;;;;;;3.95;3.20;;;21.60;89.40;;;;;;6193753;28;89155;-67
2022/11/25 09:02:57;;;;;;;3.22;2.92;;;21.60;89.40;;;;;;6181621;28;89510;-67
2022/11/25 09:06:00;;;;;;;3.17;2.88;;;21.60;89.40;;;;;;6194908;28;89360;-67
2022/11/25 09:09:04;;;;;;;3.45;3.10;;;21.50;89.30;;;;;;6202446;28;89221;-67
2022/11/25 09:12:07;;;;;;;5.20;3.67;;;21.50;89.30;;;;;;6184728;28;90173;-67
2022/11/25 09:15:10;;;;;;;3.30;3.00;;;21.60;89.40;;;;;;6192600;28;89170;-67
2022/11/25 09:18:14;;;;;;;3.50;3.20;;;21.50;89.30;;;;;;6186965;28;89226;-67
2022/11/25 09:21:17;;;;;;;3.35;3.00;;;21.60;89.30;;;;;;6200885;28;89438;-67
2022/11/25 09:24:19;;;;;;;3.17;2.88;;;21.60;89.30;;;;;;6198345;28;89260;-67
2022/11/25 09:27:21;;;;;;;5.50;3.72;;;21.60;89.30;;;;;;6203679;28;89172;-67
2022/11/25 09:30:24;;;;;;;3.83;3.17;;;21.60;89.30;;;;;;6192040;28;89254;-67
2022/11/25 09:33:28;;;;;;;3.28;2.97;;;21.60;89.20;;;;;;6205555;28;88491;-67
2022/11/25 09:36:30;;;;;;;3.33;2.90;;;21.60;89.20;;;;;;6205477;28;89053;-66
2022/11/25 09:39:33;;;;;;;3.28;2.92;;;21.60;89.10;;;;;;6195532;28;89149;-67
2022/11/25 09:49:51;;;;;;;3.33;2.95;;;21.70;89.20;;;;;;6184985;28;88630;-67
2022/11/25 09:53:01;;;;;;;3.28;2.97;;;21.60;89.10;;;;;;6199074;28;89817;-67
2022/11/25 09:56:06;;;;;;;3.28;2.97;;;21.70;89.10;;;;;;6205894;28;89410;-67
2022/11/25 09:59:14;;;;;;;3.17;2.88;;;21.70;89.10;;;;;;6209178;28;89060;-67
2022/11/25 10:02:24;;;;;;;3.40;3.10;;;21.70;89.10;;;;;;6209458;28;89958;-67
2022/11/25 10:05:30;;;;;;;3.75;3.35;;;21.70;89.10;;;;;;6196585;28;88480;-67
2022/11/25 10:08:38;;;;;;;3.63;3.30;;;21.70;89.10;;;;;;6188822;28;88989;-67
2022/11/25 10:11:48;;;;;;;3.30;3.00;;;21.70;89.10;;;;;;6185592;28;89486;-67
2022/11/25 10:14:53;;;;;;;3.10;2.80;;;21.70;89.10;;;;;;6207320;28;90050;-67
2022/11/25 10:17:59;;;;;;;3.42;3.10;;;21.70;89.10;;;;;;6194679;28;89229;-67
2022/11/25 10:21:04;;;;;;;3.33;3.03;;;21.70;89.10;;;;;;6205583;28;89376;-67
2022/11/25 10:24:13;;;;;;;3.88;3.38;;;21.70;89.10;;;;;;6197330;28;89328;-67
2022/11/25 10:27:21;;;;;;;3.88;3.35;;;21.70;89.10;;;;;;6198219;28;88088;-67
2022/11/25 10:30:25;;;;;;;3.30;3.00;;;21.70;89.10;;;;;;6198189;28;88080;-67
2022/11/25 10:33:30;;;;;;;3.13;2.83;;;21.70;89.10;;;;;;6199114;28;89231;-68
2022/11/25 10:36:38;;;;;;;3.25;2.92;;;21.70;89.10;;;;;;6208602;28;88492;-67
2022/11/25 10:39:40;;;;;;;3.20;2.90;;;21.70;89.00;;;;;;6198003;28;89165;-67
2022/11/25 10:42:42;;;;;;;3.58;3.10;;;21.80;89.10;;;;;;6203983;28;89361;-67
2022/11/25 10:45:49;;;;;;;2.85;2.60;;;21.80;89.10;;;;;;6205642;28;90194;-67
2022/11/25 10:49:00;;;;;;;3.45;3.15;;;21.80;89.10;;;;;;6202212;28;89218;-67
2022/11/25 10:52:12;;;;;;;5.03;3.25;;;21.80;89.10;;;;;;6201310;28;89020;-68
2022/11/25 10:55:16;;;;;;;4.90;3.38;;;21.80;89.10;;;;;;6203674;28;89250;-67
2022/11/25 10:58:26;;;;;;;3.95;3.10;;;21.80;89.10;;;;;;6196725;28;89145;-67
2022/11/25 11:01:28;;;;;;;3.35;2.90;;;21.80;89.10;;;;;;6196600;28;89126;-67
2022/11/25 11:04:30;;;;;;;3.03;2.72;;;21.80;89.10;;;;;;6208277;28;89064;-67
2022/11/25 11:07:36;;;;;;;3.10;2.80;;;21.80;89.10;;;;;;6206481;28;88440;-67
2022/11/25 11:10:39;;;;;;;3.20;2.90;;;21.80;89.10;;;;;;6202744;28;88680;-67
2022/11/25 11:13:41;;;;;;;3.88;3.05;;;21.80;89.10;;;;;;6195804;28;89155;-67
2022/11/25 11:16:45;;;;;;;3.10;2.80;;;21.80;90.00;;;;;;6183241;28;90238;-67
2022/11/25 11:20:01;;;;;;;2.80;2.50;;;21.80;89.10;;;;;;6199267;28;89242;-67
2022/11/25 11:23:09;;;;;;;3.05;2.75;;;21.80;89.10;;;;;;6194551;28;89280;-67
2022/11/25 11:26:23;;;;;;;2.70;2.50;;;21.80;89.10;;;;;;6193110;28;89240;-67
2022/11/25 11:29:25;;;;;;;3.10;2.70;;;21.80;89.10;;;;;;6200616;28;89124;-66
2022/11/25 11:32:29;;;;;;;2.97;2.63;;;21.80;89.10;;;;;;6186857;28;89503;-67
2022/11/25 11:35:55;;;;;;;3.15;2.83;;;21.80;89.10;;;;;;6198283;28;89325;-67
2022/11/25 11:39:21;;;;;;;3.20;2.90;;;21.80;89.10;;;;;;6190511;28;88530;-67
2022/11/25 11:42:32;;;;;;;2.80;2.60;;;21.80;89.10;;;;;;6200668;28;89087;-66
2022/11/25 11:45:50;;;;;;;3.10;2.80;;;21.80;89.10;;;;;;6201749;28;88142;-67
2022/11/25 11:49:02;;;;;;;3.22;2.78;;;21.80;89.10;;;;;;6205791;28;90105;-67
2022/11/25 11:52:11;;;;;;;3.38;2.90;;;21.80;89.10;;;;;;6189222;28;89110;-67
2022/11/25 11:55:26;;;;;;;3.33;3.00;;;21.80;89.10;;;;;;6195629;28;89082;-67
2022/11/25 11:58:41;;;;;;;2.80;2.60;;;21.80;89.10;;;;;;6185528;28;89235;-67
2022/11/25 12:01:54;;;;;;;3.90;3.00;;;21.80;89.10;;;;;;6192941;28;89215;-67
2022/11/25 12:05:04;;;;;;;3.08;2.70;;;21.80;89.10;;;;;;6192848;28;89601;-67
2022/11/25 12:08:13;;;;;;;3.40;2.70;;;21.80;89.20;;;;;;6206361;28;89362;-68
2022/11/25 12:11:20;;;;;;;2.70;2.50;;;21.80;89.10;;;;;;6198669;28;87502;-67
2022/11/25 12:14:32;;;;;;;2.70;2.50;;;21.80;89.10;;;;;;6182876;28;89232;-67
2022/11/25 12:17:43;;;;;;;2.58;2.38;;;21.80;89.20;;;;;;6182702;28;89637;-68
2022/11/25 12:20:51;;;;;;;3.17;2.60;;;21.90;89.20;;;;;;6184113;28;90073;-68
2022/11/25 12:24:02;;;;;;;3.10;2.78;;;21.80;89.10;;;;;;6192398;28;89270;-68
2022/11/25 12:27:11;;;;;;;2.90;2.67;;;21.80;89.10;;;;;;6195135;28;89139;-68
2022/11/25 12:30:16;;;;;;;2.80;2.60;;;21.80;89.10;;;;;;6205342;28;89136;-67
2022/11/25 12:33:22;;;;;;;2.55;2.33;;;21.90;89.20;;;;;;6195508;28;89195;-67
2022/11/25 12:36:32;;;;;;;3.20;2.80;;;21.80;89.10;;;;;;6204506;28;89837;-67
2022/11/25 12:39:40;;;;;;;2.78;2.50;;;21.80;89.10;;;;;;6204468;28;88328;-67
2022/11/25 12:42:46;;;;;;;2.97;2.70;;;21.80;89.10;;;;;;6197921;28;88382;-67
2022/11/25 12:45:58;;;;;;;2.53;2.33;;;21.80;89.10;;;;;;6201968;28;89129;-67
2022/11/25 12:49:01;;;;;;;2.90;2.70;;;21.90;89.20;;;;;;6186020;28;89281;-67
2022/11/25 12:52:24;;;;;;;6.15;3.55;;;21.80;89.10;;;;;;6194899;28;90307;-67
2022/11/25 12:55:27;;;;;;;2.67;2.47;;;21.80;89.10;;;;;;6205629;28;89121;-67
2022/11/25 12:58:48;;;;;;;2.78;2.50;;;21.80;89.20;;;;;;6190414;28;89143;-67
2022/11/25 13:02:03;;;;;;;2.88;2.67;;;21.90;89.20;;;;;;6184327;28;89111;-67
2022/11/25 13:05:25;;;;;;;3.10;2.55;;;21.80;89.10;;;;;;6201756;28;89242;-67
2022/11/25 13:08:48;;;;;;;3.40;2.53;;;21.90;89.10;;;;;;6196966;28;89284;-67
2022/11/25 13:12:07;;;;;;;3.15;2.60;;;21.80;89.10;;;;;;6191780;28;89313;-67
2022/11/25 13:15:26;;;;;;;3.38;2.75;;;21.90;89.10;;;;;;6195054;28;88429;-67
2022/11/25 13:18:32;;;;;;;3.75;2.95;;;21.90;89.10;;;;;;6200959;28;89233;-67
2022/11/25 13:21:34;;;;;;;2.85;2.65;;;21.90;89.10;;;;;;6209423;28;89996;-67
2022/11/25 13:24:40;;;;;;;2.80;2.60;;;21.90;89.10;;;;;;6196293;28;90153;-67
2022/11/25 13:27:58;;;;;;;2.63;2.42;;;21.90;89.10;;;;;;6202964;28;89120;-67
2022/11/25 13:31:32;;;;;;;2.95;2.53;;;21.90;89.10;;;;;;6198258;28;89317;-67
2022/11/25 13:34:35;;;;;;;2.70;2.50;;;21.90;89.10;;;;;;6173844;28;88265;-67
2022/11/25 13:37:39;;;;;;;3.00;2.70;;;21.90;89.00;;;;;;6208850;28;89285;-67
2022/11/25 13:40:41;;;;;;;2.63;2.42;;;21.90;89.10;;;;;;6188607;28;89104;-68
2022/11/25 13:43:55;;;;;;;2.63;2.40;;;21.90;89.10;;;;;;6207709;28;87963;-67
2022/11/25 13:47:01;;;;;;;2.70;2.47;;;21.90;89.10;;;;;;6206585;28;88078;-67
2022/11/25 13:50:06;;;;;;;2.60;2.40;;;21.80;89.00;;;;;;6208797;28;89101;-67
2022/11/25 13:53:20;;;;;;;2.35;2.15;;;21.90;89.10;;;;;;6196116;28;89250;-67
2022/11/25 13:56:29;;;;;;;3.13;2.65;;;21.90;89.00;;;;;;6196625;28;90081;-67
2022/11/25 13:59:50;;;;;;;2.60;2.40;;;21.90;89.00;;;;;;6208546;28;89294;-67
2022/11/25 14:02:54;;;;;;;2.75;2.55;;;21.90;89.10;;;;;;6185281;28;88255;-67
2022/11/25 14:06:03;;;;;;;2.67;2.47;;;21.90;89.00;;;;;;6208339;28;89137;-67
2022/11/25 14:09:15;;;;;;;2.75;2.55;;;21.90;89.00;;;;;;6208534;28;89216;-67
2022/11/25 14:12:40;;;;;;;2.88;2.40;;;21.90;89.00;;;;;;6192541;28;89313;-67
2022/11/25 14:15:57;;;;;;;2.72;2.40;;;21.90;89.00;;;;;;6189370;28;89141;-66
2022/11/25 14:19:26;;;;;;;2.78;2.47;;;21.90;89.90;;;;;;6196792;28;89701;-67
2022/11/25 14:22:56;;;;;;;4.30;2.80;;;21.90;89.00;;;;;;6199180;28;87950;-67
2022/11/25 14:26:08;;;;;;;2.50;2.30;;;21.90;89.00;;;;;;6208478;28;89573;-67
2022/11/25 14:29:17;;;;;;;2.80;2.55;;;21.90;88.90;;;;;;6204074;28;88982;-67
2022/11/25 14:32:23;;;;;;;2.58;2.35;;;21.90;88.90;;;;;;6198434;28;89326;-67
2022/11/25 14:35:32;;;;;;;3.65;3.03;;;21.90;88.90;;;;;;6194156;28;89144;-67
2022/11/25 14:38:40;;;;;;;3.58;2.70;;;21.90;88.90;;;;;;6194614;28;89217;-67
2022/11/25 14:41:49;;;;;;;3.15;2.60;;;21.90;89.30;;;;;;6207886;28;89152;-68
2022/11/25 14:44:54;;;;;;;2.67;2.47;;;21.90;88.90;;;;;;6194810;28;89777;-67
2022/11/25 14:47:57;;;;;;;2.50;2.22;;;21.90;88.80;;;;;;6183965;28;87887;-67
2022/11/25 14:51:03;;;;;;;2.58;2.38;;;21.90;88.80;;;;;;6187490;28;88482;-67
2022/11/25 14:54:08;;;;;;;2.50;2.30;;;21.90;88.80;;;;;;6196586;28;89191;-67
2022/11/25 14:57:10;;;;;;;2.60;2.40;;;21.90;88.80;;;;;;6188574;28;89533;-67
2022/11/25 15:00:15;;;;;;;2.63;2.42;;;21.90;88.80;;;;;;6207457;28;90083;-67
2022/11/25 15:03:20;;;;;;;2.95;2.55;;;21.90;88.80;;;;;;6194725;28;89192;-67
2022/11/25 15:06:28;;;;;;;3.53;2.80;;;21.90;88.80;;;;;;6206070;28;89044;-68
2022/11/25 15:09:32;;;;;;;2.70;2.45;;;21.90;88.80;;;;;;6208062;28;89375;-68
2022/11/25 15:12:34;;;;;;;2.38;2.17;;;21.90;88.80;;;;;;6194155;28;87965;-67
2022/11/25 15:15:36;;;;;;;2.58;2.38;;;21.90;88.80;;;;;;6189564;28;88254;-67
2022/11/25 15:18:43;;;;;;;2.40;2.20;;;21.90;88.80;;;;;;6192194;28;89332;-67
2022/11/25 15:21:53;;;;;;;2.55;2.35;;;21.90;88.80;;;;;;6196131;28;87426;-68
2022/11/25 15:25:06;;;;;;;2.55;2.30;;;21.90;88.80;;;;;;6194406;28;89328;-67
2022/11/25 15:28:16;;;;;;;2.65;2.45;;;21.90;88.80;;;;;;6192803;28;89130;-68
2022/11/25 15:31:20;;;;;;;2.58;2.38;;;21.90;88.80;;;;;;6206444;28;89608;-67
2022/11/25 15:34:24;;;;;;;2.58;2.38;;;21.90;88.70;;;;;;6206467;28;89156;-67
2022/11/25 15:37:28;;;;;;;2.60;2.40;;;21.90;88.70;;;;;;6206481;28;89118;-67
2022/11/25 15:40:32;;;;;;;2.80;2.53;;;21.90;88.80;;;;;;6193784;28;89570;-68
2022/11/25 15:43:38;;;;;;;3.45;2.85;;;21.90;88.70;;;;;;6193406;28;87964;-68
2022/11/25 15:46:40;;;;;;;3.67;2.88;;;21.90;88.70;;;;;;6204938;28;89269;-68
2022/11/25 15:49:49;;;;;;;2.42;2.22;;;21.90;88.70;;;;;;6206991;28;89181;-67
2022/11/25 15:52:55;;;;;;;2.53;2.33;;;21.90;88.70;;;;;;6193895;28;88895;-67
2022/11/25 15:56:00;;;;;;;2.58;2.38;;;21.90;88.70;;;;;;6198478;28;89218;-68
2022/11/25 15:59:02;;;;;;;2.60;2.40;;;21.90;88.60;;;;;;6188917;28;89569;-68
2022/11/25 16:02:38;;;;;;;2.42;2.22;;;21.90;88.60;;;;;;6200364;28;88989;-67
2022/11/25 16:05:52;;;;;;;2.60;2.40;;;21.90;88.60;;;;;;6203276;28;90202;-67
2022/11/25 16:08:58;;;;;;;2.83;2.50;;;21.90;88.60;;;;;;6206240;28;89152;-67
2022/11/25 16:12:09;;;;;;;3.85;3.03;;;21.90;88.50;;;;;;6190595;28;88566;-68
2022/11/25 16:15:16;;;;;;;3.08;2.63;;;21.90;88.50;;;;;;6182792;28;89936;-67
2022/11/25 16:18:22;;;;;;;2.47;2.28;;;21.90;88.50;;;;;;6193515;28;89355;-67
2022/11/25 16:21:29;;;;;;;2.55;2.35;;;21.90;88.40;;;;;;6188003;28;89222;-67